Time;durP1;ratioP1;P1;durP2;ratioP2;P2;SDS_P1;SDS_P2;PMS_P1;PMS_P2;Temp;Humidity;BMP_temperature;BMP_pressure;BME280_temperature;BME280_humidity;BME280_pressure;Samples;Min_cycle;Max_cycle;Signal;HPM_P1;HPM_P2
2022/05/12 00:01:54;;;;;;;0.55;0.40;;;;;;;;;;5017207;28;20037;-85
2022/05/12 00:04:21;;;;;;;0.63;0.63;;;;;;;;;;5017473;28;20663;-85
2022/05/12 00:06:47;;;;;;;0.70;0.52;;;;;;;;;;5006611;28;20061;-84
2022/05/12 00:09:13;;;;;;;0.30;0.30;;;;;;;;;;5005699;28;20041;-85
2022/05/12 00:11:39;;;;;;;2.25;1.40;;;;;;;;;;5007664;28;20052;-85
2022/05/12 00:14:05;;;;;;;0.20;0.20;;;;;;;;;;5003484;28;20064;-86
2022/05/12 00:16:31;;;;;;;0.65;0.65;;;;;;;;;;5012772;28;20514;-85
2022/05/12 00:18:57;;;;;;;0.35;0.32;;;;;;;;;;5014715;28;20026;-84
2022/05/12 00:21:23;;;;;;;0.35;0.35;;;;;;;;;;5004854;28;20128;-84
2022/05/12 00:23:58;;;;;;;0.20;0.20;;;;;;;;;;5007266;28;20116;-85
2022/05/12 00:26:28;;;;;;;1.15;1.05;;;;;;;;;;5006456;28;20586;-85
2022/05/12 00:28:55;;;;;;;0.50;0.50;;;;;;;;;;5018836;28;20156;-85
2022/05/12 00:31:22;;;;;;;0.80;0.80;;;;;;;;;;5018987;28;20080;-85
2022/05/12 00:33:48;;;;;;;0.30;0.30;;;;;;;;;;5008919;28;20045;-87
2022/05/12 00:36:14;;;;;;;2.35;0.43;;;;;;;;;;5004128;28;20080;-86
2022/05/12 00:38:40;;;;;;;0.57;0.57;;;;;;;;;;5007194;28;20033;-85
2022/05/12 00:41:06;;;;;;;0.20;0.20;;;;;;;;;;5011594;28;20124;-87
2022/05/12 00:43:38;;;;;;;3.97;0.20;;;;;;;;;;5006363;28;20075;-88
2022/05/12 00:46:08;;;;;;;1.27;1.17;;;;;;;;;;5004241;28;20043;-87
2022/05/12 00:48:34;;;;;;;0.73;0.60;;;;;;;;;;5012761;28;20072;-88
2022/05/12 00:51:01;;;;;;;0.70;0.60;;;;;;;;;;5011528;28;20071;-88
2022/05/12 00:53:28;;;;;;;4.18;0.52;;;;;;;;;;5005907;28;20307;-88
2022/05/12 00:55:54;;;;;;;0.20;0.20;;;;;;;;;;5015498;28;20041;-88
2022/05/12 00:58:22;;;;;;;0.40;0.40;;;;;;;;;;4992782;28;20032;-87
2022/05/12 01:00:48;;;;;;;6.18;1.33;;;;;;;;;;5006702;28;20048;-88
2022/05/12 01:03:15;;;;;;;1.23;1.03;;;;;;;;;;5006467;28;20140;-87
2022/05/12 01:05:42;;;;;;;0.50;0.50;;;;;;;;;;5018550;28;20288;-88
2022/05/12 01:08:08;;;;;;;;;;;;;;;;;;4995901;28;20086;-89
2022/05/12 01:10:34;;;;;;;0.35;0.35;;;;;;;;;;5015249;28;19928;-89
2022/05/12 01:13:01;;;;;;;0.45;0.45;;;;;;;;;;5020410;28;20029;-87
2022/05/12 01:15:27;;;;;;;0.20;0.20;;;;;;;;;;5008820;28;20165;-86
2022/05/12 01:18:07;;;;;;;0.40;0.40;;;;;;;;;;5013297;28;20363;-87
2022/05/12 01:20:33;;;;;;;0.77;0.77;;;;;;;;;;5008647;28;20283;-88
2022/05/12 01:23:05;;;;;;;0.52;0.52;;;;;;;;;;5020820;28;20033;-88
2022/05/12 01:25:32;;;;;;;0.60;0.60;;;;;;;;;;5006444;28;20052;-88
2022/05/12 01:27:58;;;;;;;;;;;;;;;;;;5015749;28;20037;-88
2022/05/12 01:30:25;;;;;;;0.22;0.22;;;;;;;;;;5014527;28;19920;-87
2022/05/12 01:32:51;;;;;;;0.43;0.43;;;;;;;;;;5009605;28;20076;-87
2022/05/12 01:35:19;;;;;;;0.47;0.47;;;;;;;;;;5012828;28;20055;-87
2022/05/12 01:37:46;;;;;;;0.93;0.50;;;;;;;;;;5017002;28;20064;-88
2022/05/12 01:40:14;;;;;;;0.73;0.73;;;;;;;;;;5012772;28;20060;-87
2022/05/12 01:42:41;;;;;;;0.45;0.45;;;;;;;;;;5017486;28;20033;-87
2022/05/12 01:45:08;;;;;;;0.55;0.55;;;;;;;;;;5022470;28;20112;-87
2022/05/12 01:47:33;;;;;;;;;;;;;;;;;;5020110;28;20041;-87
2022/05/12 01:50:00;;;;;;;0.30;0.30;;;;;;;;;;5015165;28;19927;-88
2022/05/12 01:52:26;;;;;;;2.58;1.30;;;;;;;;;;5022444;28;20037;-87
2022/05/12 01:54:52;;;;;;;1.17;0.50;;;;;;;;;;5019560;28;20032;-87
2022/05/12 01:57:19;;;;;;;0.25;0.25;;;;;;;;;;5012974;28;21112;-88
2022/05/12 01:59:45;;;;;;;0.52;0.43;;;;;;;;;;5013815;28;20033;-87
2022/05/12 02:02:11;;;;;;;0.30;0.30;;;;;;;;;;5003411;28;20502;-86
2022/05/12 02:04:37;;;;;;;0.57;0.43;;;;;;;;;;5024297;28;20287;-87
2022/05/12 02:07:03;;;;;;;0.20;0.20;;;;;;;;;;5014637;28;20030;-87
2022/05/12 02:09:29;;;;;;;0.43;0.43;;;;;;;;;;5020247;28;20280;-88
2022/05/12 02:11:55;;;;;;;0.97;0.87;;;;;;;;;;5017930;28;20074;-87
2022/05/12 02:14:21;;;;;;;0.57;0.57;;;;;;;;;;5018698;28;20326;-87
2022/05/12 02:16:47;;;;;;;0.77;0.73;;;;;;;;;;4999760;28;20033;-87
2022/05/12 02:19:13;;;;;;;0.20;0.20;;;;;;;;;;5022073;28;20272;-86
2022/05/12 02:21:39;;;;;;;0.53;0.40;;;;;;;;;;5023012;28;20048;-87
2022/05/12 02:24:05;;;;;;;1.23;0.60;;;;;;;;;;5021086;28;20284;-87
2022/05/12 02:26:31;;;;;;;12.05;1.10;;;;;;;;;;5010365;28;20057;-88
2022/05/12 02:28:58;;;;;;;0.30;0.30;;;;;;;;;;5019649;28;20030;-88
2022/05/12 02:31:24;;;;;;;0.70;0.70;;;;;;;;;;5017392;28;20049;-87
2022/05/12 02:33:50;;;;;;;0.67;0.53;;;;;;;;;;5007358;28;20026;-88
2022/05/12 02:36:16;;;;;;;0.15;0.15;;;;;;;;;;5005773;28;20029;-87
2022/05/12 02:38:42;;;;;;;1.45;0.55;;;;;;;;;;5006422;28;20048;-89
2022/05/12 02:41:08;;;;;;;0.73;0.57;;;;;;;;;;5007624;28;20233;-88
2022/05/12 02:43:34;;;;;;;0.75;0.75;;;;;;;;;;5009453;28;20029;-88
2022/05/12 02:46:08;;;;;;;0.63;0.63;;;;;;;;;;5008204;28;20064;-91
2022/05/12 02:48:38;;;;;;;1.30;0.65;;;;;;;;;;5007564;28;20759;-89
2022/05/12 02:51:04;;;;;;;0.43;0.40;;;;;;;;;;5006994;28;20041;-88
2022/05/12 02:53:31;;;;;;;0.25;0.25;;;;;;;;;;5006983;28;20524;-87
2022/05/12 02:55:58;;;;;;;2.08;0.85;;;;;;;;;;5007401;28;20149;-88
2022/05/12 02:58:24;;;;;;;0.52;0.45;;;;;;;;;;5007067;28;20030;-87
2022/05/12 03:00:50;;;;;;;0.43;0.30;;;;;;;;;;5010568;28;20064;-88
2022/05/12 03:03:16;;;;;;;0.77;0.77;;;;;;;;;;4990582;28;20041;-90
2022/05/12 03:05:42;;;;;;;0.77;0.77;;;;;;;;;;4990715;28;20343;-90
2022/05/12 03:08:09;;;;;;;0.10;0.10;;;;;;;;;;5007429;28;20315;-89
2022/05/12 03:10:36;;;;;;;0.95;0.52;;;;;;;;;;5008405;28;20148;-87
2022/05/12 03:13:02;;;;;;;0.47;0.47;;;;;;;;;;5020915;28;20037;-87
2022/05/12 03:15:28;;;;;;;0.25;0.25;;;;;;;;;;5012427;28;20164;-87
2022/05/12 03:17:54;;;;;;;0.10;0.10;;;;;;;;;;5011049;28;20042;-87
2022/05/12 03:20:22;;;;;;;3.93;1.57;;;;;;;;;;4992727;28;20025;-87
2022/05/12 03:22:48;;;;;;;0.20;0.20;;;;;;;;;;5006074;28;20041;-88
2022/05/12 03:25:15;;;;;;;1.00;1.00;;;;;;;;;;4986820;28;20657;-88
2022/05/12 03:27:42;;;;;;;0.22;0.22;;;;;;;;;;4996443;28;20072;-88
2022/05/12 03:30:10;;;;;;;0.30;0.30;;;;;;;;;;4992834;28;20038;-88
2022/05/12 03:32:36;;;;;;;0.20;0.13;;;;;;;;;;4995010;28;20042;-89
2022/05/12 03:35:02;;;;;;;0.40;0.40;;;;;;;;;;4994266;28;20026;-88
2022/05/12 03:37:28;;;;;;;0.20;0.20;;;;;;;;;;4986854;28;20477;-89
2022/05/12 03:39:54;;;;;;;0.37;0.37;;;;;;;;;;4985767;28;20034;-87
2022/05/12 03:42:20;;;;;;;0.43;0.40;;;;;;;;;;5007158;28;20503;-88
2022/05/12 03:44:47;;;;;;;1.93;0.63;;;;;;;;;;4991507;28;20044;-87
2022/05/12 03:47:24;;;;;;;0.28;0.28;;;;;;;;;;4991116;28;20042;-87
2022/05/12 03:49:52;;;;;;;5.28;0.90;;;;;;;;;;4993607;28;20508;-88
2022/05/12 03:52:18;;;;;;;0.88;0.68;;;;;;;;;;4999842;28;20046;-87
2022/05/12 03:54:44;;;;;;;0.20;0.20;;;;;;;;;;4992522;28;21131;-86
2022/05/12 03:57:11;;;;;;;0.25;0.25;;;;;;;;;;4993283;28;20067;-86
2022/05/12 03:59:40;;;;;;;;;;;;;;;;;;4995685;28;20077;-87
2022/05/12 04:02:07;;;;;;;0.40;0.40;;;;;;;;;;4994738;28;19979;-88
2022/05/12 04:04:33;;;;;;;0.22;0.22;;;;;;;;;;5000191;28;20506;-87
2022/05/12 04:07:00;;;;;;;1.85;1.00;;;;;;;;;;4995223;28;20038;-89
2022/05/12 04:09:27;;;;;;;0.10;0.10;;;;;;;;;;4998100;28;20029;-88
2022/05/12 04:11:54;;;;;;;0.52;0.52;;;;;;;;;;4989404;28;20558;-87
2022/05/12 04:14:20;;;;;;;0.40;0.40;;;;;;;;;;4995735;28;20037;-87
2022/05/12 04:16:46;;;;;;;0.32;0.32;;;;;;;;;;4987276;28;20052;-87
2022/05/12 04:19:13;;;;;;;0.40;0.40;;;;;;;;;;4987451;28;20780;-85
2022/05/12 04:21:39;;;;;;;0.38;0.38;;;;;;;;;;4988262;28;20038;-88
2022/05/12 04:24:06;;;;;;;0.13;0.13;;;;;;;;;;4992562;28;20123;-88
2022/05/12 04:26:36;;;;;;;0.30;0.30;;;;;;;;;;5007740;28;20088;-86
2022/05/12 04:29:02;;;;;;;2.25;0.68;;;;;;;;;;5012831;28;20537;-84
2022/05/12 04:31:28;;;;;;;0.25;0.25;;;;;;;;;;5013986;28;20057;-84
2022/05/12 04:36:39;;;;;;;0.20;0.20;;;;;;;;;;5011296;28;20096;-83
2022/05/12 04:39:06;;;;;;;0.10;0.10;;;;;;;;;;5004945;28;20301;-83
2022/05/12 04:41:32;;;;;;;1.35;0.40;;;;;;;;;;5005728;28;20116;-83
2022/05/12 04:44:01;;;;;;;0.50;0.50;;;;;;;;;;5008481;28;20036;-83
2022/05/12 04:46:27;;;;;;;0.30;0.30;;;;;;;;;;5011822;28;20526;-82
2022/05/12 04:48:53;;;;;;;0.32;0.32;;;;;;;;;;5013182;28;20037;-82
2022/05/12 04:51:20;;;;;;;0.60;0.60;;;;;;;;;;5017523;28;20037;-83
2022/05/12 04:53:46;;;;;;;0.28;0.28;;;;;;;;;;5016109;28;20030;-83
2022/05/12 04:56:12;;;;;;;0.77;0.38;;;;;;;;;;5018306;28;20049;-81
2022/05/12 04:58:38;;;;;;;0.20;0.20;;;;;;;;;;5013839;28;20033;-83
2022/05/12 05:01:04;;;;;;;0.20;0.20;;;;;;;;;;5020491;28;20426;-82
2022/05/12 05:03:30;;;;;;;0.53;0.53;;;;;;;;;;5016198;28;20304;-83
2022/05/12 05:05:56;;;;;;;0.30;0.30;;;;;;;;;;5018941;28;20029;-82
2022/05/12 05:08:23;;;;;;;0.20;0.20;;;;;;;;;;5019854;28;20137;-83
2022/05/12 05:10:51;;;;;;;0.77;0.77;;;;;;;;;;5018588;28;20327;-83
2022/05/12 05:13:21;;;;;;;0.60;0.57;;;;;;;;;;5021831;28;20044;-83
2022/05/12 05:15:48;;;;;;;0.17;0.17;;;;;;;;;;5009176;28;20498;-83
2022/05/12 05:18:14;;;;;;;;;;;;;;;;;;5011017;28;20040;-82
2022/05/12 05:20:41;;;;;;;0.25;0.25;;;;;;;;;;5018678;28;19913;-83
2022/05/12 05:23:07;;;;;;;0.47;0.28;;;;;;;;;;5020406;28;20111;-82
2022/05/12 05:25:34;;;;;;;0.55;0.25;;;;;;;;;;5016856;28;20045;-83
2022/05/12 05:28:00;;;;;;;0.20;0.20;;;;;;;;;;5021171;28;20037;-87
2022/05/12 05:30:27;;;;;;;0.98;0.63;;;;;;;;;;5019132;28;20033;-87
2022/05/12 05:32:53;;;;;;;1.75;0.90;;;;;;;;;;5017633;28;20148;-86
2022/05/12 05:35:20;;;;;;;2.28;0.20;;;;;;;;;;5015633;28;20064;-86
2022/05/12 05:37:46;;;;;;;0.45;0.45;;;;;;;;;;5017155;28;20063;-87
2022/05/12 05:40:14;;;;;;;0.55;0.55;;;;;;;;;;5004942;28;20025;-86
2022/05/12 05:42:41;;;;;;;0.13;0.13;;;;;;;;;;5019864;28;20030;-85
2022/05/12 05:45:11;;;;;;;0.68;0.55;;;;;;;;;;5018519;28;20112;-88
2022/05/12 05:47:40;;;;;;;0.40;0.40;;;;;;;;;;5013579;28;20108;-88
2022/05/12 05:50:08;;;;;;;0.45;0.45;;;;;;;;;;5019307;28;20040;-87
2022/05/12 05:55:19;;;;;;;0.40;0.40;;;;;;;;;;5015262;28;20036;-85
2022/05/12 05:57:45;;;;;;;0.30;0.30;;;;;;;;;;5020964;28;20044;-87
2022/05/12 06:00:12;;;;;;;0.40;0.40;;;;;;;;;;5022458;28;20021;-88
2022/05/12 06:02:38;;;;;;;0.77;0.73;;;;;;;;;;5022184;28;20280;-89
2022/05/12 06:05:05;;;;;;;0.15;0.10;;;;;;;;;;5021375;28;20048;-86
2022/05/12 06:07:31;;;;;;;2.05;0.38;;;;;;;;;;5023199;28;20032;-91
2022/05/12 06:09:58;;;;;;;0.10;0.10;;;;;;;;;;5002649;28;20025;-87
2022/05/12 06:12:24;;;;;;;0.15;0.15;;;;;;;;;;5021680;28;20237;-86
2022/05/12 06:14:50;;;;;;;0.10;0.10;;;;;;;;;;5020632;28;20029;-87
2022/05/12 06:17:17;;;;;;;0.20;0.20;;;;;;;;;;5022010;28;20490;-87
2022/05/12 06:19:43;;;;;;;0.00;0.00;;;;;;;;;;5022214;28;20259;-86
2022/05/12 06:22:09;;;;;;;0.25;0.25;;;;;;;;;;5021478;28;20030;-87
2022/05/12 06:24:35;;;;;;;0.30;0.30;;;;;;;;;;5015380;28;20026;-87
2022/05/12 06:27:01;;;;;;;0.13;0.10;;;;;;;;;;5013233;28;20080;-87
2022/05/12 06:29:27;;;;;;;0.10;0.10;;;;;;;;;;5022063;28;20037;-88
2022/05/12 06:31:53;;;;;;;0.20;0.20;;;;;;;;;;5021663;28;20054;-87
2022/05/12 06:34:19;;;;;;;0.30;0.30;;;;;;;;;;5019697;28;20277;-86
2022/05/12 06:36:45;;;;;;;0.63;0.50;;;;;;;;;;5021633;28;20083;-85
2022/05/12 06:39:12;;;;;;;0.50;0.50;;;;;;;;;;5024112;28;20041;-86
2022/05/12 06:41:38;;;;;;;0.35;0.20;;;;;;;;;;5021375;28;20033;-85
2022/05/12 06:44:04;;;;;;;0.10;0.10;;;;;;;;;;5024613;28;20072;-86
2022/05/12 06:46:30;;;;;;;;;;;;;;;;;;5025967;28;20504;-85
2022/05/12 06:48:56;;;;;;;0.43;0.43;;;;;;;;;;5021768;28;19923;-85
2022/05/12 06:51:23;;;;;;;0.10;0.10;;;;;;;;;;5018559;28;20048;-86
2022/05/12 06:53:49;;;;;;;0.20;0.20;;;;;;;;;;5000799;28;20022;-88
2022/05/12 06:56:15;;;;;;;0.10;0.10;;;;;;;;;;5007461;28;20037;-85
2022/05/12 06:58:42;;;;;;;0.50;0.45;;;;;;;;;;5019492;28;20032;-85
2022/05/12 07:01:09;;;;;;;0.32;0.32;;;;;;;;;;5025268;28;20037;-85
2022/05/12 07:03:35;;;;;;;0.15;0.15;;;;;;;;;;5024998;28;20036;-86
2022/05/12 07:06:02;;;;;;;0.35;0.22;;;;;;;;;;5024763;28;20124;-84
2022/05/12 07:08:28;;;;;;;0.50;0.50;;;;;;;;;;5025059;28;20091;-85
2022/05/12 07:10:54;;;;;;;0.35;0.35;;;;;;;;;;5024380;28;20711;-85
2022/05/12 07:13:21;;;;;;;0.65;0.50;;;;;;;;;;5025362;28;20037;-86
2022/05/12 07:15:49;;;;;;;0.82;0.73;;;;;;;;;;5024580;28;20650;-85
2022/05/12 07:18:15;;;;;;;1.65;0.73;;;;;;;;;;5024931;28;20462;-86
2022/05/12 07:28:55;;;;;;;0.20;0.20;;;;;;;;;;5024597;28;20075;-86
2022/05/12 07:31:22;;;;;;;0.50;0.38;;;;;;;;;;5008884;28;20048;-87
2022/05/12 07:33:49;;;;;;;0.05;0.05;;;;;;;;;;5024630;28;20033;-86
2022/05/12 07:36:16;;;;;;;0.20;0.20;;;;;;;;;;5024418;28;20069;-86
2022/05/12 07:38:43;;;;;;;0.40;0.40;;;;;;;;;;5024141;28;20033;-86
2022/05/12 07:41:12;;;;;;;0.75;0.75;;;;;;;;;;5023376;28;20037;-86
2022/05/12 07:43:38;;;;;;;0.40;0.40;;;;;;;;;;5024170;28;20033;-86
2022/05/12 07:46:05;;;;;;;;;;;;;;;;;;5024046;28;20037;-86
2022/05/12 07:48:31;;;;;;;0.63;0.50;;;;;;;;;;5023045;28;19913;-86
2022/05/12 07:50:57;;;;;;;0.75;0.75;;;;;;;;;;5022448;28;20267;-86
2022/05/12 07:53:23;;;;;;;1.85;0.40;;;;;;;;;;5022936;28;20566;-87
2022/05/12 07:55:49;;;;;;;0.20;0.20;;;;;;;;;;5023271;28;20516;-86
2022/05/12 07:58:15;;;;;;;0.30;0.30;;;;;;;;;;5024296;28;20029;-86
2022/05/12 08:00:42;;;;;;;0.10;0.10;;;;;;;;;;5023139;28;20034;-87
2022/05/12 08:03:08;;;;;;;0.40;0.40;;;;;;;;;;5022852;28;20033;-87
2022/05/12 08:05:35;;;;;;;1.35;0.75;;;;;;;;;;5021798;28;20780;-86
2022/05/12 08:08:01;;;;;;;0.52;0.38;;;;;;;;;;5022309;28;20045;-86
2022/05/12 08:10:27;;;;;;;0.77;0.77;;;;;;;;;;5006936;28;20078;-85
2022/05/12 08:12:53;;;;;;;0.10;0.10;;;;;;;;;;5022924;28;20045;-85
2022/05/12 08:15:21;;;;;;;1.25;0.63;;;;;;;;;;5001420;28;20033;-85
2022/05/12 08:17:47;;;;;;;0.30;0.28;;;;;;;;;;5001075;28;20068;-86
2022/05/12 08:20:14;;;;;;;0.65;0.57;;;;;;;;;;5022231;28;20034;-85
2022/05/12 08:22:40;;;;;;;0.20;0.20;;;;;;;;;;5023388;28;20106;-84
2022/05/12 08:25:08;;;;;;;0.00;0.00;;;;;;;;;;5023554;28;20820;-85
2022/05/12 08:27:34;;;;;;;0.95;0.68;;;;;;;;;;5022013;28;20038;-85
2022/05/12 08:30:00;;;;;;;0.47;0.47;;;;;;;;;;5005047;28;20037;-85
2022/05/12 08:32:26;;;;;;;0.52;0.50;;;;;;;;;;5022431;28;20040;-85
2022/05/12 08:34:52;;;;;;;0.30;0.25;;;;;;;;;;5003450;28;20037;-85
2022/05/12 08:37:18;;;;;;;0.52;0.52;;;;;;;;;;5023702;28;20025;-84
2022/05/12 08:39:45;;;;;;;0.13;0.10;;;;;;;;;;5022253;28;20041;-86
2022/05/12 08:42:19;;;;;;;0.40;0.40;;;;;;;;;;5000690;28;20025;-85
2022/05/12 08:44:45;;;;;;;0.70;0.60;;;;;;;;;;5001335;28;20041;-84
2022/05/12 08:47:14;;;;;;;0.15;0.15;;;;;;;;;;5022310;28;20030;-85
2022/05/12 08:49:41;;;;;;;0.20;0.20;;;;;;;;;;5023534;28;20499;-85
2022/05/12 08:52:27;;;;;;;0.63;0.45;;;;;;;;;;5018522;28;20272;-85
2022/05/12 08:54:57;;;;;;;0.90;0.90;;;;;;;;;;5021794;28;20136;-84
2022/05/12 08:57:29;;;;;;;0.55;0.50;;;;;;;;;;5022199;28;20510;-85
2022/05/12 08:59:55;;;;;;;0.40;0.32;;;;;;;;;;5001099;28;20041;-85
2022/05/12 09:02:21;;;;;;;;;;;;;;;;;;5022371;28;20025;-84
2022/05/12 09:04:50;;;;;;;0.80;0.80;;;;;;;;;;5022571;28;19909;-84
2022/05/12 09:07:28;;;;;;;0.73;0.73;;;;;;;;;;5022665;28;20041;-85
2022/05/12 09:10:13;;;;;;;0.73;0.50;;;;;;;;;;5021042;28;20057;-85
2022/05/12 09:12:42;;;;;;;1.55;0.57;;;;;;;;;;5021448;28;20037;-84
2022/05/12 09:15:20;;;;;;;0.40;0.40;;;;;;;;;;5021578;28;20034;-85
2022/05/12 09:17:55;;;;;;;0.45;0.45;;;;;;;;;;5000177;28;20033;-84
2022/05/12 09:20:21;;;;;;;0.20;0.20;;;;;;;;;;5021393;28;20025;-85
2022/05/12 09:22:47;;;;;;;0.03;0.03;;;;;;;;;;5004875;28;20124;-85
2022/05/12 09:25:28;;;;;;;0.22;0.22;;;;;;;;;;5022507;28;20136;-84
2022/05/12 09:27:58;;;;;;;1.00;0.75;;;;;;;;;;5021375;28;20136;-84
2022/05/12 09:30:31;;;;;;;1.27;0.50;;;;;;;;;;5021004;28;20069;-87
2022/05/12 09:32:58;;;;;;;0.40;0.40;;;;;;;;;;5021178;28;20104;-87
2022/05/12 09:35:25;;;;;;;0.30;0.30;;;;;;;;;;5019954;28;20037;-86
2022/05/12 09:37:51;;;;;;;0.15;0.15;;;;;;;;;;5021471;28;20029;-86
2022/05/12 09:40:17;;;;;;;;;;;;;;;;;;5022693;28;20513;-86
2022/05/12 09:42:46;;;;;;;0.30;0.30;;;;;;;;;;5020036;28;19912;-85
2022/05/12 09:45:24;;;;;;;0.30;0.30;;;;;;;;;;5021303;28;20036;-85
2022/05/12 09:47:50;;;;;;;0.17;0.17;;;;;;;;;;5003759;28;20084;-85
2022/05/12 09:50:25;;;;;;;0.82;0.77;;;;;;;;;;5020725;28;20029;-85
2022/05/12 09:52:54;;;;;;;0.45;0.43;;;;;;;;;;5021152;28;20042;-85
2022/05/12 09:55:21;;;;;;;0.55;0.55;;;;;;;;;;5020529;28;20371;-86
2022/05/12 09:57:52;;;;;;;0.43;0.43;;;;;;;;;;5020964;28;20041;-85
2022/05/12 10:00:32;;;;;;;1.00;0.73;;;;;;;;;;5020652;28;20449;-86
2022/05/12 10:09:10;;;;;;;0.70;0.45;;;;;;;;;;5024716;28;20107;-85
2022/05/12 10:11:48;;;;;;;1.45;0.73;;;;;;;;;;5024791;28;20829;-85
2022/05/12 10:14:34;;;;;;;0.85;0.85;;;;;;;;;;5010347;28;20025;-84
2022/05/12 10:17:02;;;;;;;0.70;0.70;;;;;;;;;;5025030;28;20409;-85
2022/05/12 10:19:29;;;;;;;0.43;0.43;;;;;;;;;;5026286;28;20568;-85
2022/05/12 10:22:07;;;;;;;3.42;1.30;;;;;;;;;;5024699;28;20055;-84
2022/05/12 10:24:33;;;;;;;0.55;0.55;;;;;;;;;;5024929;28;20032;-84
2022/05/12 10:27:20;;;;;;;1.47;1.37;;;;;;;;;;5024377;28;20045;-86
2022/05/12 10:30:16;;;;;;;0.25;0.25;;;;;;;;;;5024261;28;20521;-85
2022/05/12 10:32:57;;;;;;;3.00;0.97;;;;;;;;;;5009893;28;20049;-85
2022/05/12 10:35:32;;;;;;;0.75;0.73;;;;;;;;;;5024786;28;20025;-84
2022/05/12 10:38:07;;;;;;;0.52;0.52;;;;;;;;;;5024534;28;20029;-85
2022/05/12 10:40:43;;;;;;;0.50;0.50;;;;;;;;;;5026052;28;20029;-84
2022/05/12 10:43:19;;;;;;;0.50;0.50;;;;;;;;;;5025303;28;20112;-82
2022/05/12 10:46:04;;;;;;;0.95;0.45;;;;;;;;;;5022340;28;20064;-83
2022/05/12 10:48:33;;;;;;;0.45;0.30;;;;;;;;;;5019048;28;20033;-84
2022/05/12 10:51:14;;;;;;;3.20;0.47;;;;;;;;;;5023988;28;20045;-84
2022/05/12 10:53:52;;;;;;;0.15;0.10;;;;;;;;;;5024263;28;20061;-85
2022/05/12 10:56:36;;;;;;;2.95;1.15;;;;;;;;;;5008213;28;20057;-85
2022/05/12 10:59:14;;;;;;;0.20;0.20;;;;;;;;;;5023503;28;20042;-84
2022/05/12 11:01:53;;;;;;;0.50;0.50;;;;;;;;;;5020400;28;20445;-84
2022/05/12 11:04:22;;;;;;;0.43;0.30;;;;;;;;;;5025288;28;20461;-83
2022/05/12 11:07:08;;;;;;;2.17;1.08;;;;;;;;;;5022694;28;20462;-84
2022/05/12 11:09:40;;;;;;;0.10;0.10;;;;;;;;;;5023530;28;20067;-85
2022/05/12 11:12:14;;;;;;;0.52;0.52;;;;;;;;;;5022100;28;20043;-84
2022/05/12 11:14:44;;;;;;;0.80;0.47;;;;;;;;;;5002542;28;20879;-84
2022/05/12 11:17:10;;;;;;;0.73;0.50;;;;;;;;;;5014194;28;20041;-83
2022/05/12 11:19:38;;;;;;;0.30;0.30;;;;;;;;;;5021068;28;20429;-85
2022/05/12 11:22:04;;;;;;;0.30;0.30;;;;;;;;;;5022882;28;20036;-83
2022/05/12 11:24:49;;;;;;;0.60;0.60;;;;;;;;;;5023072;28;20084;-84
2022/05/12 11:27:40;;;;;;;0.52;0.52;;;;;;;;;;4984921;28;20046;-84
2022/05/12 11:30:22;;;;;;;0.30;0.30;;;;;;;;;;4985091;28;20066;-84
2022/05/12 11:33:02;;;;;;;1.80;1.35;;;;;;;;;;4974287;28;20053;-84
2022/05/12 11:35:32;;;;;;;0.22;0.10;;;;;;;;;;4985079;28;20109;-83
2022/05/12 11:38:04;;;;;;;1.27;0.25;;;;;;;;;;4984906;28;20042;-85
2022/05/12 11:40:48;;;;;;;1.90;0.98;;;;;;;;;;4985238;28;20561;-83
2022/05/12 11:46:20;;;;;;;0.40;0.40;;;;;;;;;;4984415;28;20078;-85
2022/05/12 11:48:52;;;;;;;0.57;0.32;;;;;;;;;;4984931;28;20030;-85
2022/05/12 11:51:21;;;;;;;0.30;0.30;;;;;;;;;;4984673;28;20197;-85
2022/05/12 11:53:47;;;;;;;0.52;0.35;;;;;;;;;;4980653;28;20113;-84
2022/05/12 11:56:13;;;;;;;1.45;1.00;;;;;;;;;;4985262;28;20137;-86
2022/05/12 11:58:44;;;;;;;1.05;0.38;;;;;;;;;;4985184;28;20407;-87
2022/05/12 12:01:21;;;;;;;0.70;0.70;;;;;;;;;;4980313;28;20034;-87
2022/05/12 12:03:47;;;;;;;2.45;0.57;;;;;;;;;;4984768;28;20121;-85
2022/05/12 12:06:33;;;;;;;0.30;0.30;;;;;;;;;;4984507;28;20065;-85
2022/05/12 12:08:59;;;;;;;;;;;;;;;;;;4984386;28;20557;-85
2022/05/12 12:11:25;;;;;;;;;;;;;;;;;;4985103;28;19925;-85
2022/05/12 12:13:53;;;;;;;0.30;0.30;;;;;;;;;;4984152;28;19909;-85
2022/05/12 12:16:25;;;;;;;0.45;0.45;;;;;;;;;;4984471;28;20129;-89
2022/05/12 12:18:56;;;;;;;0.65;0.65;;;;;;;;;;4978181;28;20042;-86
2022/05/12 12:21:42;;;;;;;0.30;0.30;;;;;;;;;;4983896;28;20030;-86
2022/05/12 12:24:20;;;;;;;0.50;0.50;;;;;;;;;;4971784;28;20023;-86
2022/05/12 12:26:50;;;;;;;0.20;0.20;;;;;;;;;;5016002;28;20049;-85
2022/05/12 12:29:20;;;;;;;0.40;0.40;;;;;;;;;;5021476;28;20033;-86
2022/05/12 12:31:47;;;;;;;0.35;0.35;;;;;;;;;;5023185;28;20111;-86
2022/05/12 12:34:48;;;;;;;0.52;0.52;;;;;;;;;;5022615;28;20022;-86
2022/05/12 12:37:34;;;;;;;0.43;0.25;;;;;;;;;;4981263;28;20053;-85
2022/05/12 12:40:00;;;;;;;;;;;;;;;;;;4981137;28;20535;-86
2022/05/12 12:42:33;;;;;;;3.97;0.52;;;;;;;;;;4976479;28;19964;-86
2022/05/12 12:45:05;;;;;;;0.22;0.17;;;;;;;;;;4980468;28;20061;-86
2022/05/12 12:47:31;;;;;;;0.08;0.08;;;;;;;;;;4978100;28;20034;-85
2022/05/12 12:50:16;;;;;;;0.52;0.52;;;;;;;;;;4979527;28;20034;-86
2022/05/12 12:52:46;;;;;;;0.40;0.30;;;;;;;;;;4977736;28;20039;-86
2022/05/12 12:58:12;;;;;;;0.20;0.20;;;;;;;;;;4980430;28;20080;-85
2022/05/12 13:00:38;;;;;;;0.10;0.10;;;;;;;;;;4976018;28;20077;-85
2022/05/12 13:03:07;;;;;;;0.25;0.25;;;;;;;;;;4976860;28;20042;-86
2022/05/12 13:05:33;;;;;;;0.43;0.43;;;;;;;;;;4964965;28;20031;-85
2022/05/12 13:08:01;;;;;;;2.40;0.90;;;;;;;;;;4979192;28;20392;-85
2022/05/12 13:10:28;;;;;;;0.40;0.40;;;;;;;;;;4983162;28;20483;-85
2022/05/12 13:12:54;;;;;;;;;;;;;;;;;;5021703;28;20039;-85
2022/05/12 13:15:20;;;;;;;4.80;0.52;;;;;;;;;;5021614;28;20362;-85
2022/05/12 13:17:49;;;;;;;0.10;0.10;;;;;;;;;;5021271;28;20025;-85
2022/05/12 13:20:26;;;;;;;0.32;0.32;;;;;;;;;;5021494;28;20068;-86
2022/05/12 13:22:56;;;;;;;1.40;1.20;;;;;;;;;;5021779;28;20061;-86
2022/05/12 13:25:26;;;;;;;0.55;0.55;;;;;;;;;;5020946;28;20073;-85
2022/05/12 13:27:53;;;;;;;0.52;0.50;;;;;;;;;;5020694;28;20493;-85
2022/05/12 13:30:21;;;;;;;0.40;0.40;;;;;;;;;;5021112;28;20045;-86
2022/05/12 13:32:49;;;;;;;0.28;0.28;;;;;;;;;;5020925;28;20188;-85
2022/05/12 13:35:15;;;;;;;0.85;0.85;;;;;;;;;;5021465;28;20029;-85
2022/05/12 13:37:53;;;;;;;0.30;0.30;;;;;;;;;;5022979;28;20048;-85
2022/05/12 13:40:37;;;;;;;1.02;0.95;;;;;;;;;;5022945;28;20260;-85
2022/05/12 13:43:04;;;;;;;2.55;1.20;;;;;;;;;;5003076;28;20414;-84
2022/05/12 13:45:34;;;;;;;;;;;;;;;;;;5025826;28;20059;-84
2022/05/12 13:48:01;;;;;;;0.85;0.82;;;;;;;;;;5025173;28;19919;-84
2022/05/12 13:50:35;;;;;;;0.40;0.40;;;;;;;;;;5007141;28;20109;-85
2022/05/12 13:53:01;;;;;;;0.68;0.52;;;;;;;;;;5025198;28;20049;-85
2022/05/12 13:55:29;;;;;;;6.43;0.88;;;;;;;;;;5027201;28;20033;-84
2022/05/12 13:57:55;;;;;;;1.30;0.82;;;;;;;;;;5025146;28;20029;-83
2022/05/12 14:00:28;;;;;;;1.10;0.67;;;;;;;;;;5025424;28;20029;-84
2022/05/12 14:02:55;;;;;;;0.38;0.38;;;;;;;;;;5024881;28;20284;-83
2022/05/12 14:05:28;;;;;;;1.40;0.77;;;;;;;;;;5025052;28;20112;-85
2022/05/12 14:08:04;;;;;;;0.63;0.63;;;;;;;;;;5024936;28;20565;-83
2022/05/12 14:10:32;;;;;;;0.63;0.63;;;;;;;;;;5025378;28;20021;-83
2022/05/12 14:21:15;;;;;;;0.35;0.35;;;;;;;;;;5024384;28;20068;-83
2022/05/12 14:23:41;;;;;;;0.75;0.73;;;;;;;;;;5003527;28;20040;-84
2022/05/12 14:26:07;;;;;;;0.67;0.67;;;;;;;;;;5024248;28;20446;-83
2022/05/12 14:28:33;;;;;;;1.07;1.03;;;;;;;;;;5026550;28;20268;-83
2022/05/12 14:31:06;;;;;;;0.40;0.40;;;;;;;;;;5024200;28;20288;-82
2022/05/12 14:33:33;;;;;;;0.50;0.25;;;;;;;;;;5003131;28;20041;-83
2022/05/12 14:35:59;;;;;;;0.70;0.70;;;;;;;;;;5024154;28;20022;-83
2022/05/12 14:38:25;;;;;;;0.10;0.10;;;;;;;;;;5005613;28;20120;-83
2022/05/12 14:40:52;;;;;;;0.32;0.32;;;;;;;;;;5006331;28;20041;-83
2022/05/12 14:43:18;;;;;;;0.47;0.20;;;;;;;;;;5025644;28;20022;-83
2022/05/12 14:45:45;;;;;;;0.40;0.40;;;;;;;;;;5024046;28;20115;-83
2022/05/12 14:48:11;;;;;;;0.73;0.70;;;;;;;;;;5024094;28;20040;-83
2022/05/12 14:50:38;;;;;;;0.70;0.70;;;;;;;;;;5024369;28;20033;-82
2022/05/12 14:53:08;;;;;;;;;;;;;;;;;;5024576;28;20041;-83
2022/05/12 14:55:37;;;;;;;0.40;0.40;;;;;;;;;;5025313;28;19945;-83
2022/05/12 14:58:03;;;;;;;0.40;0.40;;;;;;;;;;5024250;28;20040;-83
2022/05/12 15:00:30;;;;;;;3.10;0.95;;;;;;;;;;5023506;28;20449;-83
2022/05/12 15:02:57;;;;;;;1.05;0.95;;;;;;;;;;5023604;28;20029;-83
2022/05/12 15:05:24;;;;;;;3.40;1.60;;;;;;;;;;5023736;28;20071;-83
2022/05/12 15:07:50;;;;;;;0.10;0.10;;;;;;;;;;5024635;28;20026;-83
2022/05/12 15:10:16;;;;;;;0.77;0.77;;;;;;;;;;5018313;28;20021;-83
2022/05/12 15:12:42;;;;;;;1.00;0.82;;;;;;;;;;5023212;28;20072;-83
2022/05/12 15:15:08;;;;;;;1.02;0.90;;;;;;;;;;5018881;28;20036;-86
2022/05/12 15:17:35;;;;;;;0.15;0.15;;;;;;;;;;5019564;28;20548;-89
2022/05/12 15:20:06;;;;;;;0.50;0.50;;;;;;;;;;5020397;28;20044;-87
2022/05/12 15:22:32;;;;;;;0.77;0.77;;;;;;;;;;5022516;28;20044;-86
2022/05/12 15:24:58;;;;;;;1.15;0.75;;;;;;;;;;5017061;28;20501;-86
2022/05/12 15:27:26;;;;;;;1.17;0.70;;;;;;;;;;5017269;28;20087;-86
2022/05/12 15:29:52;;;;;;;0.32;0.32;;;;;;;;;;5022752;28;20108;-87
2022/05/12 15:32:20;;;;;;;0.55;0.45;;;;;;;;;;5024374;28;20111;-89